createdAt,value
2022-10-23T00:01:19.493Z,86.39
2022-10-23T00:03:47.547Z,87.33
2022-10-23T00:06:15.204Z,87.27
2022-10-23T00:08:42.625Z,87.39
2022-10-23T00:11:14.404Z,86.93
2022-10-23T00:13:41.530Z,86.52
2022-10-23T00:16:08.944Z,86.01
2022-10-23T00:18:36.521Z,86.69
2022-10-23T00:21:03.832Z,87.27
2022-10-23T00:23:30.873Z,87.80
2022-10-23T00:25:58.297Z,88.01
2022-10-23T00:28:25.550Z,87.13
2022-10-23T00:31:00.419Z,87.05
2022-10-23T00:33:27.613Z,86.37
2022-10-23T00:35:54.767Z,86.15
2022-10-23T00:38:22.053Z,86.51
2022-10-23T00:43:21.928Z,87.09
2022-10-23T00:45:49.048Z,86.71
2022-10-23T00:48:16.920Z,88.45
2022-10-23T00:50:44.714Z,88.94
2022-10-23T00:53:12.953Z,88.73
2022-10-23T00:55:45.895Z,87.30
2022-10-23T00:58:13.847Z,87.24
2022-10-23T01:00:43.274Z,87.43
2022-10-23T01:03:10.444Z,88.00
2022-10-23T01:06:00.728Z,87.34
2022-10-23T01:08:31.064Z,87.77
2022-10-23T01:11:10.471Z,87.61
2022-10-23T01:13:51.241Z,87.46
2022-10-23T01:16:47.956Z,87.35
2022-10-23T01:19:25.952Z,87.16
2022-10-23T01:22:09.303Z,86.83
2022-10-23T01:24:37.605Z,87.29
2022-10-23T01:27:25.372Z,87.08
2022-10-23T01:30:00.586Z,85.95
2022-10-23T01:32:43.274Z,87.00
2022-10-23T01:35:10.962Z,87.87
2022-10-23T01:37:58.551Z,88.48
2022-10-23T01:40:32.083Z,88.05
2022-10-23T01:43:01.557Z,87.66
2022-10-23T01:45:34.516Z,86.54
2022-10-23T01:48:02.733Z,87.61
2022-10-23T01:50:31.508Z,88.94
2022-10-23T01:53:03.836Z,88.74
2022-10-23T01:55:32.799Z,88.27
2022-10-23T01:58:03.618Z,87.71
2022-10-23T02:00:39.805Z,87.30
2022-10-23T02:03:08.929Z,86.91
2022-10-23T02:05:36.241Z,87.06
2022-10-23T02:08:05.147Z,87.15
2022-10-23T02:10:41.909Z,86.99
2022-10-23T02:13:12.681Z,87.21
2022-10-23T02:15:48.154Z,87.04
2022-10-23T02:18:25.532Z,87.92
2022-10-23T02:20:56.567Z,88.29
2022-10-23T02:23:28.880Z,88.46
2022-10-23T02:25:58.836Z,89.36
2022-10-23T02:28:28.971Z,90.44
2022-10-23T02:31:36.115Z,89.98
2022-10-23T02:34:03.476Z,89.02
2022-10-23T02:36:30.592Z,88.86
2022-10-23T02:38:58.164Z,89.48
2022-10-23T02:41:25.259Z,89.30
2022-10-23T02:44:02.840Z,88.97
2022-10-23T02:46:41.705Z,89.58
2022-10-23T02:49:11.946Z,90.11
2022-10-23T02:51:45.429Z,90.28
2022-10-23T02:54:18.761Z,89.93
2022-10-23T02:56:53.648Z,89.51
2022-10-23T02:59:31.144Z,89.02
2022-10-23T03:02:04.169Z,88.37
2022-10-23T03:04:32.078Z,88.15
2022-10-23T03:06:59.178Z,87.97
2022-10-23T03:09:26.368Z,88.20
2022-10-23T03:11:53.564Z,89.25
2022-10-23T03:14:20.698Z,89.64
2022-10-23T03:16:47.853Z,89.94
2022-10-23T03:19:15.025Z,89.92
2022-10-23T03:21:42.168Z,89.64
2022-10-23T03:24:09.300Z,89.41
2022-10-23T03:26:42.764Z,89.28
2022-10-23T03:29:10.307Z,88.84
2022-10-23T03:31:43.472Z,88.89
2022-10-23T03:34:11.737Z,88.86
2022-10-23T03:36:41.131Z,90.55
2022-10-23T03:39:09.862Z,91.62
2022-10-23T03:41:37.336Z,91.26
2022-10-23T03:46:37.145Z,90.29
2022-10-23T03:49:05.754Z,90.53
2022-10-23T03:51:33.069Z,91.03
2022-10-23T03:54:00.402Z,91.14
2022-10-23T03:56:27.655Z,91.46
2022-10-23T03:58:54.876Z,91.48
2022-10-23T04:01:24.496Z,91.43
2022-10-23T04:03:51.851Z,92.17
2022-10-23T04:06:19.226Z,92.67
2022-10-23T04:08:46.419Z,93.71
2022-10-23T04:11:16.208Z,94.91
2022-10-23T04:13:46.617Z,94.21
2022-10-23T04:16:13.854Z,94.74
2022-10-23T04:18:41.762Z,95.08
2022-10-23T04:21:10.704Z,95.81
2022-10-23T04:23:38.961Z,94.89
2022-10-23T04:26:11.516Z,94.12
2022-10-23T04:28:38.820Z,93.50
2022-10-23T04:31:06.081Z,92.30
2022-10-23T04:33:33.870Z,92.89
2022-10-23T04:36:01.082Z,92.96
2022-10-23T04:38:28.429Z,92.77
2022-10-23T04:40:55.602Z,92.21
2022-10-23T04:43:23.405Z,91.81
2022-10-23T04:45:50.727Z,91.32
2022-10-23T04:48:17.982Z,91.22
2022-10-23T04:51:10.988Z,92.16
2022-10-23T04:54:02.218Z,92.34
2022-10-23T04:56:43.421Z,92.11
2022-10-23T04:59:16.854Z,91.60
2022-10-23T05:01:44.543Z,91.69
2022-10-23T05:04:11.951Z,90.98
2022-10-23T05:06:59.134Z,90.42
2022-10-23T05:09:44.600Z,90.42
2022-10-23T05:12:27.513Z,90.34
2022-10-23T05:14:54.861Z,90.03
2022-10-23T05:17:32.194Z,89.93
2022-10-23T05:20:00.940Z,90.47
2022-10-23T05:22:30.865Z,90.84
2022-10-23T05:24:58.490Z,90.51
2022-10-23T05:27:26.928Z,90.29
2022-10-23T05:29:55.949Z,90.11
2022-10-23T05:32:27.692Z,89.74
2022-10-23T05:34:55.508Z,89.59
2022-10-23T05:37:26.682Z,89.70
2022-10-23T05:40:03.625Z,90.33
2022-10-23T05:42:32.552Z,91.93
2022-10-23T05:44:59.791Z,93.29
2022-10-23T05:48:10.935Z,92.94
2022-10-23T05:51:04.498Z,91.87
2022-10-23T05:53:42.549Z,91.61
2022-10-23T05:56:18.986Z,91.92
2022-10-23T05:59:07.746Z,91.62
2022-10-23T06:01:52.975Z,92.12
2022-10-23T06:04:31.769Z,92.16
2022-10-23T06:07:30.202Z,94.01
2022-10-23T06:10:01.270Z,94.16
2022-10-23T06:12:28.556Z,93.51
2022-10-23T06:14:55.770Z,93.20
2022-10-23T06:17:29.229Z,93.16
2022-10-23T06:20:00.906Z,93.06
2022-10-23T06:22:29.132Z,92.99
2022-10-23T06:25:09.637Z,93.52
2022-10-23T06:27:36.892Z,93.76
2022-10-23T06:30:07.261Z,93.63
2022-10-23T06:32:34.439Z,93.17
2022-10-23T06:35:11.475Z,92.79
2022-10-23T06:37:39.136Z,93.09
2022-10-23T06:40:11.053Z,92.77
2022-10-23T06:42:57.543Z,93.11
2022-10-23T06:45:47.969Z,92.44
2022-10-23T06:48:15.352Z,91.86
2022-10-23T06:50:48.374Z,91.74
2022-10-23T06:53:20.560Z,91.68
2022-10-23T06:55:58.740Z,91.47
2022-10-23T06:58:26.017Z,91.13
2022-10-23T07:01:12.470Z,90.97
2022-10-23T07:03:41.928Z,90.65
2022-10-23T07:06:10.216Z,90.53
2022-10-23T07:08:38.406Z,90.16
2022-10-23T07:11:18.099Z,90.45
2022-10-23T07:13:48.878Z,90.27
2022-10-23T07:16:19.421Z,90.71
2022-10-23T07:18:47.308Z,90.76
2022-10-23T07:21:30.128Z,90.14
2022-10-23T07:24:08.770Z,89.94
2022-10-23T07:26:39.614Z,89.89
2022-10-23T07:29:07.582Z,89.59
2022-10-23T07:32:01.065Z,89.67
2022-10-23T07:34:46.913Z,89.37
2022-10-23T07:37:30.461Z,89.65
2022-10-23T07:39:59.978Z,89.12
2022-10-23T07:42:27.521Z,88.47
2022-10-23T07:44:54.686Z,88.49
2022-10-23T07:47:22.924Z,87.79
2022-10-23T07:49:52.033Z,85.75
2022-10-23T07:52:20.692Z,82.92
2022-10-23T07:55:07.424Z,81.06
2022-10-23T07:57:37.988Z,78.49
2022-10-23T08:00:15.912Z,78.50
2022-10-23T08:02:52.788Z,76.28
2022-10-23T08:05:20.521Z,74.00
2022-10-23T08:07:54.368Z,70.92
2022-10-23T08:10:22.955Z,71.39
2022-10-23T08:12:50.117Z,73.35
2022-10-23T08:15:20.806Z,74.76
2022-10-23T08:17:55.387Z,76.45
2022-10-23T08:20:59.706Z,78.59
2022-10-23T08:23:27.877Z,78.70
2022-10-23T08:25:59.155Z,78.99
2022-10-23T08:28:27.034Z,79.99
2022-10-23T08:30:56.327Z,80.62
2022-10-23T08:33:24.917Z,80.67
2022-10-23T08:35:52.564Z,81.02
2022-10-23T08:38:29.030Z,80.95
2022-10-23T08:40:57.030Z,80.88
2022-10-23T08:43:53.198Z,80.37
2022-10-23T08:46:40.788Z,80.10
2022-10-23T08:49:51.163Z,79.34
2022-10-23T08:52:35.236Z,77.93
2022-10-23T08:55:07.506Z,77.06
2022-10-23T08:57:41.273Z,76.25
2022-10-23T09:00:13.885Z,76.23
2022-10-23T09:02:49.370Z,76.28
2022-10-23T09:05:19.325Z,76.54
2022-10-23T09:07:52.245Z,75.98
2022-10-23T09:10:22.259Z,76.14
2022-10-23T09:12:49.612Z,75.55
2022-10-23T09:15:35.933Z,75.18
2022-10-23T09:18:11.298Z,74.84
2022-10-23T09:20:39.770Z,74.25
2022-10-23T09:23:12.787Z,73.37
2022-10-23T09:25:40.588Z,73.26
2022-10-23T09:28:15.272Z,72.98
2022-10-23T09:30:42.642Z,72.66
2022-10-23T09:33:30.867Z,72.59
2022-10-23T09:35:59.537Z,72.50
2022-10-23T09:38:31.529Z,71.87
2022-10-23T09:41:06.152Z,72.45
2022-10-23T09:43:33.318Z,72.70
2022-10-23T09:46:07.067Z,72.47
2022-10-23T09:48:36.535Z,72.59
2022-10-23T09:51:04.832Z,72.08
2022-10-23T09:53:34.104Z,71.67
2022-10-23T09:56:07.910Z,71.29
2022-10-23T09:58:40.105Z,70.74
2022-10-23T10:01:07.371Z,71.71
2022-10-23T10:03:50.900Z,71.29
2022-10-23T10:06:26.213Z,71.45
2022-10-23T10:08:55.688Z,71.45
2022-10-23T10:11:28.286Z,71.50
2022-10-23T10:13:55.807Z,72.10
2022-10-23T10:16:26.897Z,72.46
2022-10-23T10:19:05.904Z,72.86
2022-10-23T10:21:51.402Z,72.55
2022-10-23T10:24:21.994Z,72.57
2022-10-23T10:26:57.088Z,72.44
2022-10-23T10:29:29.778Z,72.13
2022-10-23T10:32:22.144Z,72.58
2022-10-23T10:35:02.853Z,72.27
2022-10-23T10:37:47.340Z,72.03
2022-10-23T10:40:23.348Z,72.28
2022-10-23T10:43:09.230Z,72.49
2022-10-23T10:45:47.018Z,72.25
2022-10-23T10:48:21.144Z,72.35
2022-10-23T10:51:08.572Z,72.37
2022-10-23T10:53:52.187Z,72.97
2022-10-23T10:56:20.736Z,72.35
2022-10-23T10:58:53.812Z,72.06
2022-10-23T11:01:35.799Z,72.64
2022-10-23T11:04:18.141Z,72.58
2022-10-23T11:06:48.561Z,72.47
2022-10-23T11:09:26.860Z,72.42
2022-10-23T11:11:54.220Z,72.27
2022-10-23T11:14:23.056Z,70.93
2022-10-23T11:16:57.236Z,70.54
2022-10-23T11:19:26.497Z,70.53
2022-10-23T11:21:59.493Z,70.77
2022-10-23T11:24:44.109Z,70.03
2022-10-23T11:27:32.977Z,70.49
2022-10-23T11:30:18.930Z,70.52
2022-10-23T11:32:49.703Z,70.60
2022-10-23T11:35:20.054Z,70.88
2022-10-23T11:37:57.328Z,70.82
2022-10-23T11:40:25.597Z,70.62
2022-10-23T11:42:53.006Z,70.79
2022-10-23T11:45:27.472Z,70.63
2022-10-23T11:47:58.759Z,70.82
2022-10-23T11:50:33.494Z,70.05
2022-10-23T11:53:20.878Z,69.67
2022-10-23T11:56:00.475Z,69.80
2022-10-23T11:58:44.220Z,69.52
2022-10-23T12:01:30.284Z,69.04
2022-10-23T12:04:03.189Z,69.30
2022-10-23T12:06:39.946Z,69.43
2022-10-23T12:09:22.594Z,69.17
2022-10-23T12:12:01.326Z,68.79
2022-10-23T12:14:33.466Z,68.55
2022-10-23T12:17:00.733Z,68.83
2022-10-23T12:19:29.967Z,69.21
2022-10-23T12:21:59.444Z,69.13
2022-10-23T12:24:39.902Z,68.25
2022-10-23T12:27:31.221Z,68.63
2022-10-23T12:30:14.229Z,68.15
2022-10-23T12:32:47.453Z,68.07
2022-10-23T12:35:17.781Z,67.30
2022-10-23T12:38:03.533Z,67.93
2022-10-23T12:40:30.925Z,68.15
2022-10-23T12:42:59.828Z,67.98
2022-10-23T12:45:29.210Z,67.87
2022-10-23T12:47:56.456Z,68.19
2022-10-23T12:50:28.380Z,67.92
2022-10-23T12:53:01.119Z,68.01
2022-10-23T12:55:46.899Z,68.48
2022-10-23T12:58:21.376Z,68.46
2022-10-23T13:00:50.927Z,68.21
2022-10-23T13:03:20.195Z,67.42
2022-10-23T13:05:47.753Z,67.23
2022-10-23T13:08:14.921Z,67.29
2022-10-23T13:11:01.333Z,67.60
2022-10-23T13:13:30.526Z,67.85
2022-10-23T13:15:57.703Z,68.29
2022-10-23T13:18:24.964Z,68.80
2022-10-23T13:20:52.192Z,69.35
2022-10-23T13:23:19.424Z,69.26
2022-10-23T13:25:56.938Z,69.50
2022-10-23T13:28:33.287Z,69.81
2022-10-23T13:31:03.472Z,69.41
2022-10-23T13:33:35.025Z,69.64
2022-10-23T13:36:05.365Z,69.83
2022-10-23T13:38:34.903Z,69.08
2022-10-23T13:41:04.156Z,69.13
2022-10-23T13:43:32.936Z,69.06
2022-10-23T13:46:00.379Z,68.88
2022-10-23T13:48:28.095Z,68.69
2022-10-23T13:51:01.080Z,68.68
2022-10-23T13:53:28.178Z,68.67
2022-10-23T13:55:57.926Z,68.84
2022-10-23T13:58:25.985Z,69.13
2022-10-23T14:00:53.662Z,69.49
2022-10-23T14:03:24.324Z,68.84
2022-10-23T14:05:51.753Z,68.80
2022-10-23T14:08:19.252Z,69.08
2022-10-23T14:10:46.560Z,68.34
2022-10-23T14:13:13.810Z,68.37
2022-10-23T14:15:40.942Z,68.43
2022-10-23T14:18:08.531Z,68.77
2022-10-23T14:20:37.960Z,69.43
2022-10-23T14:23:05.095Z,69.56
2022-10-23T14:25:32.290Z,69.49
2022-10-23T14:27:59.385Z,69.40
2022-10-23T14:30:26.553Z,69.34
2022-10-23T14:32:53.781Z,69.95
2022-10-23T14:35:20.928Z,69.37
2022-10-23T14:37:48.276Z,69.57
2022-10-23T14:40:15.538Z,69.70
2022-10-23T14:42:42.720Z,69.52
2022-10-23T14:45:10.268Z,69.64
2022-10-23T14:47:37.427Z,69.25
2022-10-23T14:50:04.793Z,69.82
2022-10-23T14:52:31.926Z,69.78
2022-10-23T14:55:00.671Z,69.81
2022-10-23T14:57:28.084Z,70.22
2022-10-23T14:59:55.339Z,70.03
2022-10-23T15:02:22.494Z,69.72
2022-10-23T15:04:49.642Z,70.00
2022-10-23T15:07:16.820Z,69.94
2022-10-23T15:09:44.438Z,69.32
2022-10-23T15:12:11.647Z,69.29
2022-10-23T15:14:38.954Z,69.14
2022-10-23T15:17:06.203Z,69.07
2022-10-23T15:19:33.525Z,69.61
2022-10-23T15:22:00.809Z,69.67
2022-10-23T15:24:28.006Z,70.11
2022-10-23T15:26:55.168Z,70.01
2022-10-23T15:29:23.089Z,69.89
2022-10-23T15:31:55.569Z,70.03
2022-10-23T15:34:23.989Z,70.29
2022-10-23T15:36:51.263Z,70.48
2022-10-23T15:39:20.460Z,70.72
2022-10-23T15:41:47.821Z,70.79
2022-10-23T15:44:16.212Z,71.52
2022-10-23T15:46:43.836Z,71.25
2022-10-23T15:49:11.066Z,71.49
2022-10-23T15:51:38.952Z,71.83
2022-10-23T15:54:07.156Z,71.92
2022-10-23T15:56:34.935Z,71.93
2022-10-23T15:59:02.329Z,71.80
2022-10-23T16:01:29.609Z,72.11
2022-10-23T16:03:56.951Z,72.21
2022-10-23T16:06:24.186Z,72.58
2022-10-23T16:08:51.491Z,72.72
2022-10-23T16:11:20.785Z,73.14
2022-10-23T16:13:47.978Z,73.26
2022-10-23T16:16:15.278Z,73.31
2022-10-23T16:18:43.740Z,73.64
2022-10-23T16:21:24.421Z,73.80
2022-10-23T16:23:52.603Z,74.13
2022-10-23T16:26:20.218Z,74.47
2022-10-23T16:28:47.646Z,74.74
2022-10-23T16:31:19.352Z,75.12
2022-10-23T16:33:48.617Z,75.47
2022-10-23T16:36:16.252Z,75.67
2022-10-23T16:39:03.213Z,75.65
2022-10-23T16:41:49.222Z,75.58
2022-10-23T16:44:19.446Z,75.72
2022-10-23T16:46:58.033Z,76.27
2022-10-23T16:49:43.731Z,76.59
2022-10-23T16:52:10.988Z,77.03
2022-10-23T16:54:38.129Z,77.28
2022-10-23T16:57:05.318Z,76.96
2022-10-23T16:59:32.490Z,77.31
2022-10-23T17:01:59.796Z,77.32
2022-10-23T17:04:27.166Z,77.24
2022-10-23T17:06:54.354Z,77.42
2022-10-23T17:09:21.605Z,77.52
2022-10-23T17:11:51.004Z,77.56
2022-10-23T17:14:19.715Z,77.86
2022-10-23T17:16:48.237Z,78.34
2022-10-23T17:19:33.052Z,79.20
2022-10-23T17:22:10.523Z,79.24
2022-10-23T17:24:38.749Z,79.67
2022-10-23T17:27:05.981Z,80.11
2022-10-23T17:29:33.177Z,80.53
2022-10-23T17:32:00.383Z,80.84
2022-10-23T17:34:27.796Z,81.38
2022-10-23T17:36:55.248Z,81.93
2022-10-23T17:39:24.292Z,82.67
2022-10-23T17:41:51.744Z,82.70
2022-10-23T17:44:19.154Z,83.01
2022-10-23T17:46:46.341Z,83.51
2022-10-23T17:49:13.521Z,83.50
2022-10-23T17:51:40.694Z,83.61
2022-10-23T17:54:09.174Z,83.81
2022-10-23T17:56:37.702Z,84.79
2022-10-23T17:59:07.086Z,84.70
2022-10-23T18:01:34.346Z,84.94
2022-10-23T18:04:02.925Z,85.17
2022-10-23T18:06:34.939Z,85.26
2022-10-23T18:09:03.857Z,85.15
2022-10-23T18:11:32.340Z,85.34
2022-10-23T18:16:33.403Z,85.56
2022-10-23T18:19:01.076Z,85.24
2022-10-23T18:21:28.724Z,85.43
2022-10-23T18:23:55.921Z,85.71
2022-10-23T18:26:24.196Z,85.67
2022-10-23T18:28:52.607Z,85.65
2022-10-23T18:31:20.043Z,86.46
2022-10-23T18:33:47.353Z,86.38
2022-10-23T18:36:15.762Z,86.39
2022-10-23T18:38:43.050Z,86.54
2022-10-23T18:41:10.253Z,86.49
2022-10-23T18:43:43.747Z,86.42
2022-10-23T18:46:15.273Z,86.78
2022-10-23T18:48:43.479Z,87.36
2022-10-23T18:51:21.584Z,87.95
2022-10-23T18:53:49.216Z,88.35
2022-10-23T18:56:21.822Z,88.40
2022-10-23T18:58:52.653Z,88.47
2022-10-23T19:01:20.131Z,88.53
2022-10-23T19:03:47.841Z,88.41
2022-10-23T19:06:15.274Z,88.33
2022-10-23T19:08:43.719Z,88.28
2022-10-23T19:11:11.962Z,87.84
2022-10-23T19:13:40.766Z,88.51
2022-10-23T19:16:14.708Z,89.20
2022-10-23T19:18:43.876Z,89.35
2022-10-23T19:21:11.647Z,88.98
2022-10-23T19:23:40.926Z,88.88
2022-10-23T19:26:10.994Z,89.48
2022-10-23T19:28:40.152Z,89.40
2022-10-23T19:31:10.274Z,89.58
2022-10-23T19:33:39.542Z,91.06
2022-10-23T19:36:11.150Z,90.62
2022-10-23T19:38:42.198Z,89.87
2022-10-23T19:41:10.257Z,88.72
2022-10-23T19:43:42.738Z,89.15
2022-10-23T19:46:12.172Z,90.51
2022-10-23T19:48:43.599Z,90.91
2022-10-23T19:51:13.325Z,90.31
2022-10-23T19:53:42.298Z,89.53
2022-10-23T19:56:11.272Z,89.30
2022-10-23T19:58:39.197Z,89.07
2022-10-23T20:01:07.929Z,88.37
2022-10-23T20:03:38.194Z,88.02
2022-10-23T20:06:08.520Z,88.30
2022-10-23T20:08:36.365Z,87.98
2022-10-23T20:11:04.178Z,87.15
2022-10-23T20:13:31.947Z,86.53
2022-10-23T20:15:59.194Z,86.66
2022-10-23T20:18:26.457Z,87.28
2022-10-23T20:20:53.778Z,87.77
2022-10-23T20:23:21.043Z,88.23
2022-10-23T20:25:48.315Z,88.01
2022-10-23T20:28:15.630Z,88.29
2022-10-23T20:30:44.067Z,88.46
2022-10-23T20:33:11.611Z,89.49
2022-10-23T20:35:42.654Z,89.76
2022-10-23T20:38:10.349Z,88.47
2022-10-23T20:40:37.540Z,88.57
2022-10-23T20:43:04.804Z,88.13
2022-10-23T20:45:32.011Z,89.06
2022-10-23T20:47:59.210Z,89.06
2022-10-23T20:50:26.339Z,87.86
2022-10-23T20:52:53.482Z,87.99
2022-10-23T20:55:20.667Z,88.15
2022-10-23T20:57:47.914Z,88.45
2022-10-23T21:00:15.731Z,88.67
2022-10-23T21:02:45.969Z,88.40
2022-10-23T21:05:15.644Z,87.72
2022-10-23T21:07:42.901Z,88.08
2022-10-23T21:10:10.210Z,89.09
2022-10-23T21:12:37.440Z,89.56
2022-10-23T21:15:04.817Z,90.46
2022-10-23T21:17:35.863Z,91.41
2022-10-23T21:20:03.574Z,91.19
2022-10-23T21:22:31.001Z,89.93
2022-10-23T21:25:00.084Z,89.45
2022-10-23T21:27:27.427Z,89.91
2022-10-23T21:29:54.657Z,90.29
2022-10-23T21:32:22.215Z,90.05
2022-10-23T21:34:49.637Z,89.12
2022-10-23T21:37:16.786Z,88.91
2022-10-23T21:39:44.199Z,88.52
2022-10-23T21:42:12.473Z,88.03
2022-10-23T21:44:39.672Z,89.50
2022-10-23T21:47:07.315Z,90.62
2022-10-23T21:49:34.512Z,90.64
2022-10-23T21:52:01.692Z,89.95
2022-10-23T21:54:28.889Z,90.06
2022-10-23T21:56:56.095Z,89.82
2022-10-23T21:59:25.873Z,89.34
2022-10-23T22:01:55.277Z,89.42
2022-10-23T22:04:22.553Z,89.48
2022-10-23T22:06:50.110Z,89.61
2022-10-23T22:09:19.468Z,89.83
2022-10-23T22:11:49.189Z,90.26
2022-10-23T22:14:16.361Z,90.22
2022-10-23T22:16:43.579Z,90.33
2022-10-23T22:19:11.993Z,89.88
2022-10-23T22:21:39.226Z,89.68
2022-10-23T22:24:06.726Z,89.19
2022-10-23T22:26:36.142Z,88.52
2022-10-23T22:29:07.519Z,90.04
2022-10-23T22:31:35.281Z,91.10
2022-10-23T22:34:13.266Z,91.72
2022-10-23T22:36:51.036Z,92.05
2022-10-23T22:39:18.292Z,91.86
2022-10-23T22:41:45.575Z,90.27
2022-10-23T22:44:12.853Z,89.55
2022-10-23T22:46:40.470Z,89.13
2022-10-23T22:49:07.766Z,88.95
2022-10-23T22:51:34.951Z,89.42
2022-10-23T22:54:02.123Z,90.33
2022-10-23T22:56:30.421Z,89.95
2022-10-23T22:58:57.914Z,89.50
2022-10-23T23:01:27.078Z,90.46
2022-10-23T23:03:54.390Z,92.07
2022-10-23T23:06:22.416Z,92.35
2022-10-23T23:08:50.213Z,93.25
2022-10-23T23:11:18.366Z,94.16
2022-10-23T23:13:46.130Z,93.51
2022-10-23T23:16:17.658Z,93.69
2022-10-23T23:18:44.962Z,92.50
2022-10-23T23:21:12.189Z,91.28
2022-10-23T23:23:39.390Z,90.91
2022-10-23T23:26:07.257Z,92.64
2022-10-23T23:28:34.458Z,94.07
2022-10-23T23:31:12.126Z,95.05
2022-10-23T23:33:39.315Z,94.91
2022-10-23T23:36:10.497Z,93.64
2022-10-23T23:38:38.287Z,93.79
2022-10-23T23:41:06.065Z,94.22
2022-10-23T23:43:33.144Z,93.63
2022-10-23T23:46:00.333Z,92.92
2022-10-23T23:48:27.618Z,92.04
2022-10-23T23:50:54.762Z,91.58
2022-10-23T23:53:21.907Z,92.19
2022-10-23T23:55:49.224Z,91.61
2022-10-23T23:58:16.309Z,91.24
